createdAt,value
2023-05-04T00:01:28.660Z,7.00
2023-05-04T00:03:55.528Z,6.96
2023-05-04T00:06:22.227Z,6.92
2023-05-04T00:08:48.748Z,6.89
2023-05-04T00:11:15.257Z,6.86
2023-05-04T00:13:41.773Z,6.86
2023-05-04T00:16:10.633Z,6.86
2023-05-04T00:18:37.769Z,6.80
2023-05-04T00:21:04.291Z,6.78
2023-05-04T00:23:30.957Z,6.73
2023-05-04T00:26:01.092Z,6.72
2023-05-04T00:28:27.880Z,6.68
2023-05-04T00:30:54.680Z,6.68
2023-05-04T00:33:21.884Z,6.58
2023-05-04T00:35:48.603Z,6.62
2023-05-04T00:38:16.730Z,6.55
2023-05-04T00:40:43.444Z,6.57
2023-05-04T00:43:09.991Z,6.53
2023-05-04T00:45:36.567Z,6.50
2023-05-04T00:48:03.769Z,6.48
2023-05-04T00:50:30.804Z,6.48
2023-05-04T00:52:59.803Z,6.48
2023-05-04T00:55:26.811Z,6.42
2023-05-04T00:57:53.567Z,6.38
2023-05-04T01:00:20.519Z,6.33
2023-05-04T01:02:47.064Z,6.33
2023-05-04T01:05:14.049Z,6.35
2023-05-04T01:08:01.236Z,6.30
2023-05-04T01:10:37.405Z,6.32
2023-05-04T01:13:16.358Z,6.27
2023-05-04T01:15:43.303Z,6.33
2023-05-04T01:18:09.915Z,6.29
2023-05-04T01:20:37.214Z,6.26
2023-05-04T01:23:04.176Z,6.22
2023-05-04T01:25:44.399Z,6.22
2023-05-04T01:28:18.434Z,6.21
2023-05-04T01:30:49.862Z,6.15
2023-05-04T01:33:17.279Z,6.22
2023-05-04T01:35:44.651Z,6.12
2023-05-04T01:38:11.206Z,6.17
2023-05-04T01:40:37.724Z,6.10
2023-05-04T01:43:04.307Z,6.08
2023-05-04T01:45:30.835Z,6.03
2023-05-04T01:47:57.410Z,6.01
2023-05-04T01:50:23.978Z,5.99
2023-05-04T01:52:50.873Z,5.91
2023-05-04T01:55:17.445Z,6.02
2023-05-04T01:57:43.983Z,5.99
2023-05-04T02:00:11.199Z,5.94
2023-05-04T02:02:37.792Z,5.87
2023-05-04T02:05:04.832Z,5.95
2023-05-04T02:07:31.371Z,5.92
2023-05-04T02:09:57.898Z,5.94
2023-05-04T02:12:24.504Z,5.87
2023-05-04T02:14:51.060Z,5.87
2023-05-04T02:17:17.540Z,5.84
2023-05-04T02:19:44.042Z,5.81
2023-05-04T02:22:10.715Z,5.71
2023-05-04T02:24:37.360Z,5.72
2023-05-04T02:27:03.909Z,5.81
2023-05-04T02:29:30.505Z,5.83
2023-05-04T02:31:57.086Z,5.79
2023-05-04T02:34:23.676Z,5.80
2023-05-04T02:36:50.256Z,5.79
2023-05-04T02:39:17.388Z,5.73
2023-05-04T02:41:43.951Z,5.76
2023-05-04T02:44:10.638Z,5.67
2023-05-04T02:46:37.244Z,5.81
2023-05-04T02:49:03.931Z,5.52
2023-05-04T02:51:30.455Z,5.68
2023-05-04T02:53:57.017Z,5.72
2023-05-04T02:56:24.327Z,5.69
2023-05-04T02:58:50.926Z,5.73
2023-05-04T03:01:17.451Z,5.53
2023-05-04T03:03:44.097Z,5.55
2023-05-04T03:06:10.708Z,5.56
2023-05-04T03:08:37.276Z,5.58
2023-05-04T03:11:03.816Z,5.64
2023-05-04T03:13:30.357Z,5.47
2023-05-04T03:15:56.994Z,5.55
2023-05-04T03:18:23.525Z,5.53
2023-05-04T03:20:50.092Z,5.50
2023-05-04T03:23:16.649Z,5.34
2023-05-04T03:25:43.203Z,5.43
2023-05-04T03:28:09.751Z,5.34
2023-05-04T03:30:36.927Z,5.41
2023-05-04T03:33:04.227Z,5.35
2023-05-04T03:35:30.907Z,5.39
2023-05-04T03:37:57.577Z,5.30
2023-05-04T03:40:24.480Z,5.32
2023-05-04T03:42:54.360Z,5.27
2023-05-04T03:45:22.087Z,5.34
2023-05-04T03:47:48.894Z,5.33
2023-05-04T03:50:15.808Z,5.31
2023-05-04T03:52:42.544Z,5.39
2023-05-04T03:55:10.792Z,5.19
2023-05-04T03:57:37.464Z,5.01
2023-05-04T04:00:04.741Z,5.06
2023-05-04T04:02:31.734Z,5.32
2023-05-04T04:04:59.939Z,5.12
2023-05-04T04:07:27.193Z,5.29
2023-05-04T04:09:53.857Z,5.22
2023-05-04T04:12:20.883Z,5.30
2023-05-04T04:14:48.966Z,5.35
2023-05-04T04:17:15.877Z,5.35
2023-05-04T04:19:42.637Z,5.36
2023-05-04T04:22:09.252Z,5.17
2023-05-04T04:24:35.916Z,5.31
2023-05-04T04:27:06.401Z,5.34
2023-05-04T04:29:35.852Z,5.35
2023-05-04T04:32:04.567Z,5.34
2023-05-04T04:34:31.324Z,5.43
2023-05-04T04:36:59.729Z,5.28
2023-05-04T04:39:28.399Z,5.50
2023-05-04T04:41:56.353Z,5.49
2023-05-04T04:44:24.553Z,5.53
2023-05-04T04:46:55.245Z,5.35
2023-05-04T04:49:22.068Z,5.19
2023-05-04T04:51:56.585Z,5.56
2023-05-04T04:54:23.477Z,5.59
2023-05-04T04:56:50.205Z,5.62
2023-05-04T04:59:17.946Z,5.60
2023-05-04T05:01:44.860Z,5.71
2023-05-04T05:04:13.174Z,5.65
2023-05-04T05:06:39.847Z,5.57
2023-05-04T05:09:06.431Z,5.81
2023-05-04T05:11:33.002Z,5.71
2023-05-04T05:14:03.374Z,5.95
2023-05-04T05:16:51.540Z,6.04
2023-05-04T05:19:18.253Z,5.95
2023-05-04T05:21:44.885Z,6.07
2023-05-04T05:24:11.490Z,6.18
2023-05-04T05:26:38.180Z,6.06
2023-05-04T05:29:04.849Z,6.02
2023-05-04T05:31:33.101Z,6.19
2023-05-04T05:33:59.805Z,6.60
2023-05-04T05:36:27.310Z,6.80
2023-05-04T05:38:54.120Z,6.73
2023-05-04T05:41:21.011Z,6.57
2023-05-04T05:43:47.962Z,6.90
2023-05-04T05:46:14.750Z,7.17
2023-05-04T05:48:42.796Z,7.36
2023-05-04T05:51:09.500Z,7.63
2023-05-04T05:53:37.159Z,7.49
2023-05-04T05:56:05.182Z,7.54
2023-05-04T05:58:31.835Z,7.62
2023-05-04T06:01:01.317Z,7.88
2023-05-04T06:03:31.069Z,7.71
2023-05-04T06:05:58.299Z,7.66
2023-05-04T06:08:28.304Z,7.83
2023-05-04T06:10:57.306Z,7.90
2023-05-04T06:13:24.294Z,7.95
2023-05-04T06:15:52.771Z,8.21
2023-05-04T06:18:20.630Z,8.10
2023-05-04T06:20:47.659Z,8.26
2023-05-04T06:23:15.756Z,8.38
2023-05-04T06:25:42.469Z,8.52
2023-05-04T06:28:09.157Z,8.56
2023-05-04T06:30:36.595Z,8.55
2023-05-04T06:33:04.449Z,8.49
2023-05-04T06:35:31.550Z,8.74
2023-05-04T06:38:01.851Z,8.67
2023-05-04T06:40:28.605Z,8.87
2023-05-04T06:42:55.259Z,9.08
2023-05-04T06:45:21.966Z,9.01
2023-05-04T06:47:52.548Z,9.06
2023-05-04T06:50:19.480Z,9.28
2023-05-04T06:52:46.665Z,9.60
2023-05-04T06:55:13.973Z,9.81
2023-05-04T06:57:41.303Z,9.77
2023-05-04T07:00:10.033Z,10.14
2023-05-04T07:02:36.707Z,10.05
2023-05-04T07:05:04.072Z,10.01
2023-05-04T07:07:30.766Z,10.29
2023-05-04T07:10:00.317Z,10.86
2023-05-04T07:12:32.392Z,10.72
2023-05-04T07:15:01.005Z,11.01
2023-05-04T07:17:28.016Z,11.03
2023-05-04T07:19:54.891Z,10.94
2023-05-04T07:22:21.716Z,10.96
2023-05-04T07:24:48.324Z,11.40
2023-05-04T07:27:15.033Z,11.76
2023-05-04T07:29:41.776Z,11.50
2023-05-04T07:32:08.561Z,11.54
2023-05-04T07:34:45.061Z,11.38
2023-05-04T07:37:17.170Z,11.76
2023-05-04T07:39:43.991Z,12.37
2023-05-04T07:42:13.592Z,12.02
2023-05-04T07:44:48.121Z,12.22
2023-05-04T07:47:14.818Z,12.36
2023-05-04T07:49:41.467Z,12.06
2023-05-04T07:52:08.063Z,12.29
2023-05-04T07:54:37.608Z,12.24
2023-05-04T07:57:04.568Z,12.41
2023-05-04T07:59:32.036Z,12.91
2023-05-04T08:01:58.898Z,12.83
2023-05-04T08:04:25.737Z,13.06
2023-05-04T08:06:52.613Z,13.38
2023-05-04T08:09:20.070Z,13.53
2023-05-04T08:11:47.534Z,13.43
2023-05-04T08:14:15.001Z,13.22
2023-05-04T08:16:41.758Z,12.88
2023-05-04T08:19:08.535Z,13.20
2023-05-04T08:21:35.248Z,13.41
2023-05-04T08:24:04.778Z,13.54
2023-05-04T08:26:31.512Z,13.69
2023-05-04T08:29:10.599Z,13.68
2023-05-04T08:31:37.989Z,13.76
2023-05-04T08:34:04.814Z,13.68
2023-05-04T08:36:33.806Z,14.13
2023-05-04T08:39:00.948Z,14.27
2023-05-04T08:41:28.026Z,14.13
2023-05-04T08:43:54.900Z,14.35
2023-05-04T08:46:23.086Z,14.85
2023-05-04T08:48:53.208Z,14.66
2023-05-04T08:51:23.400Z,14.56
2023-05-04T08:53:51.805Z,14.49
2023-05-04T08:56:19.989Z,14.47
2023-05-04T08:58:50.069Z,14.48
2023-05-04T09:01:18.902Z,14.80
2023-05-04T09:03:47.637Z,14.82
2023-05-04T09:06:15.390Z,15.01
2023-05-04T09:08:42.842Z,14.76
2023-05-04T09:11:09.771Z,14.86
2023-05-04T09:13:37.190Z,14.76
2023-05-04T09:16:05.377Z,14.99
2023-05-04T09:18:44.554Z,15.30
2023-05-04T09:21:11.760Z,15.52
2023-05-04T09:23:51.696Z,15.89
2023-05-04T09:26:31.975Z,16.00
2023-05-04T09:29:12.135Z,15.82
2023-05-04T09:31:48.602Z,15.69
2023-05-04T09:34:19.637Z,15.36
2023-05-04T09:36:46.679Z,15.45
2023-05-04T09:39:15.161Z,15.75
2023-05-04T09:41:46.024Z,15.77
2023-05-04T09:44:22.977Z,15.54
2023-05-04T09:47:00.502Z,15.55
2023-05-04T09:49:40.119Z,15.74
2023-05-04T09:52:07.360Z,15.85
2023-05-04T09:54:36.322Z,16.17
2023-05-04T09:57:12.221Z,16.43
2023-05-04T09:59:39.981Z,16.74
2023-05-04T10:02:22.558Z,17.15
2023-05-04T10:04:57.437Z,17.22
2023-05-04T10:07:35.002Z,16.91
2023-05-04T10:10:11.579Z,16.87
2023-05-04T10:12:41.108Z,16.86
2023-05-04T10:15:15.406Z,17.01
2023-05-04T10:18:00.785Z,17.26
2023-05-04T10:21:17.505Z,17.36
2023-05-04T10:24:05.371Z,17.66
2023-05-04T10:26:59.912Z,17.57
2023-05-04T10:29:31.767Z,17.49
2023-05-04T10:32:06.968Z,17.40
2023-05-04T10:34:37.954Z,17.70
2023-05-04T10:37:28.988Z,17.93
2023-05-04T10:39:58.896Z,17.82
2023-05-04T10:42:27.925Z,17.88
2023-05-04T10:45:00.096Z,18.08
2023-05-04T10:47:40.851Z,18.58
2023-05-04T10:50:14.504Z,18.63
2023-05-04T10:52:54.097Z,18.36
2023-05-04T10:55:32.966Z,18.24
2023-05-04T10:58:03.401Z,18.68
2023-05-04T11:00:47.442Z,18.48
2023-05-04T11:03:31.364Z,18.90
2023-05-04T11:06:01.666Z,18.54
2023-05-04T11:08:32.453Z,18.28
2023-05-04T11:11:08.354Z,18.43
2023-05-04T11:13:50.209Z,18.29
2023-05-04T11:16:31.522Z,18.31
2023-05-04T11:19:24.752Z,18.15
2023-05-04T11:22:17.565Z,18.43
2023-05-04T11:24:48.945Z,18.45
2023-05-04T11:27:31.140Z,18.63
2023-05-04T11:33:14.804Z,18.99
2023-05-04T11:38:54.469Z,19.17
2023-05-04T11:41:32.798Z,19.01
2023-05-04T11:46:55.337Z,19.29
2023-05-04T11:55:12.764Z,19.96
2023-05-04T11:57:47.041Z,20.11
2023-05-04T12:00:17.433Z,19.92
2023-05-04T12:03:02.270Z,20.17
2023-05-04T12:05:32.936Z,20.08
2023-05-04T12:08:13.503Z,20.41
2023-05-04T12:11:04.254Z,20.40
2023-05-04T12:13:31.183Z,20.35
2023-05-04T12:16:22.596Z,20.02
2023-05-04T12:19:10.517Z,19.94
2023-05-04T12:25:54.676Z,20.91
2023-05-04T12:32:07.505Z,21.82
2023-05-04T12:34:48.345Z,21.52
2023-05-04T12:38:01.072Z,21.69
2023-05-04T12:40:27.775Z,21.72
2023-05-04T12:43:23.057Z,21.50
2023-05-04T12:46:29.962Z,21.30
2023-05-04T12:49:15.020Z,21.34
2023-05-04T13:18:45.904Z,20.49
2023-05-04T13:21:56.743Z,20.82
2023-05-04T13:24:39.427Z,20.92
2023-05-04T13:29:01.279Z,20.97
2023-05-04T13:31:03.123Z,21.38
2023-05-04T13:40:09.099Z,21.04
2023-05-04T13:42:41.901Z,20.97
2023-05-04T13:45:30.471Z,20.99
2023-05-04T13:48:03.996Z,21.10
2023-05-04T13:50:44.559Z,21.08
2023-05-04T13:53:13.927Z,21.07
2023-05-04T13:55:40.744Z,20.96
2023-05-04T13:58:42.275Z,20.89
2023-05-04T14:01:16.594Z,21.21
2023-05-04T14:03:48.805Z,21.13
2023-05-04T14:06:29.772Z,21.15
2023-05-04T14:09:04.320Z,21.27
2023-05-04T14:11:37.547Z,21.33
2023-05-04T14:17:17.968Z,21.06
2023-05-04T14:20:25.201Z,21.15
2023-05-04T14:23:11.547Z,21.30
2023-05-04T14:25:51.035Z,21.30
2023-05-04T14:28:58.788Z,21.55
2023-05-04T14:35:18.124Z,21.47
2023-05-04T14:38:12.242Z,21.41
2023-05-04T14:40:52.894Z,21.37
2023-05-04T14:44:08.755Z,21.41
2023-05-04T14:50:17.926Z,21.34
2023-05-04T14:53:15.670Z,21.12
2023-05-04T14:58:26.609Z,21.24
2023-05-04T15:01:50.764Z,21.01
2023-05-04T15:04:52.989Z,20.99
2023-05-04T15:10:29.019Z,21.21
2023-05-04T15:13:30.903Z,21.27
2023-05-04T15:16:14.789Z,21.39
2023-05-04T15:24:25.853Z,21.22
2023-05-04T15:27:39.866Z,21.19
2023-05-04T15:30:14.787Z,21.39
2023-05-04T15:39:31.275Z,20.88
2023-05-04T15:45:38.341Z,21.00
2023-05-04T15:48:12.498Z,20.79
2023-05-04T15:51:04.129Z,21.05
2023-05-04T15:53:37.723Z,20.70
2023-05-04T15:56:07.872Z,20.63
2023-05-04T15:59:19.538Z,20.93
2023-05-04T16:01:46.283Z,20.72
2023-05-04T16:04:13.598Z,20.91
2023-05-04T16:06:41.744Z,20.92
2023-05-04T16:09:39.085Z,20.63
2023-05-04T16:18:20.002Z,20.73
2023-05-04T16:20:47.862Z,20.79
2023-05-04T16:23:29.766Z,20.94
2023-05-04T16:26:06.581Z,21.00
2023-05-04T16:28:45.260Z,21.08
2023-05-04T16:31:12.243Z,21.25
2023-05-04T16:33:47.972Z,21.08
2023-05-04T16:36:47.426Z,21.17
2023-05-04T16:39:38.028Z,21.17
2023-05-04T16:45:53.094Z,20.88
2023-05-04T16:58:20.316Z,20.46
2023-05-04T17:04:50.652Z,20.13
2023-05-04T17:29:04.173Z,19.90
2023-05-04T17:46:31.581Z,19.28
2023-05-04T17:49:01.656Z,19.07
2023-05-04T17:51:58.693Z,19.13
2023-05-04T18:26:12.316Z,18.36
2023-05-04T18:39:28.733Z,17.92
2023-05-04T18:51:15.255Z,17.59
2023-05-04T18:54:17.797Z,17.36
2023-05-04T18:57:28.872Z,17.32
2023-05-04T19:00:38.849Z,17.20
2023-05-04T19:03:39.068Z,17.14
2023-05-04T19:06:41.828Z,17.10
2023-05-04T19:09:17.902Z,16.98
2023-05-04T19:41:25.647Z,15.92
2023-05-04T19:48:23.085Z,15.98
2023-05-04T19:50:55.468Z,15.93
2023-05-04T19:53:23.165Z,15.83
2023-05-04T19:55:55.807Z,15.76
2023-05-04T19:58:28.500Z,15.64
2023-05-04T20:01:01.229Z,15.57
2023-05-04T20:03:43.373Z,15.80
2023-05-04T20:06:25.781Z,15.64
2023-05-04T20:12:13.249Z,15.65
2023-05-04T20:18:49.995Z,15.50
2023-05-04T20:21:57.278Z,15.45
2023-05-04T20:31:16.792Z,15.26
2023-05-04T20:34:13.568Z,15.24
2023-05-04T20:42:50.847Z,15.01
2023-05-04T20:45:33.443Z,15.05
2023-05-04T20:51:19.861Z,14.87
2023-05-04T20:57:02.191Z,14.87
2023-05-04T20:59:55.555Z,14.82
2023-05-04T21:02:37.520Z,14.78
2023-05-04T21:05:36.334Z,14.72
2023-05-04T21:08:13.764Z,14.63
2023-05-04T21:10:48.815Z,14.70
2023-05-04T21:16:43.402Z,14.74
2023-05-04T21:19:21.922Z,14.67
2023-05-04T21:21:59.784Z,14.50
2023-05-04T21:24:32.293Z,14.56
2023-05-04T21:27:03.196Z,14.37
2023-05-04T21:32:21.416Z,14.41
2023-05-04T21:38:13.142Z,14.48
2023-05-04T21:40:59.545Z,14.55
2023-05-04T21:43:33.342Z,14.42
2023-05-04T21:45:59.985Z,14.37
2023-05-04T21:48:29.992Z,14.54
2023-05-04T21:50:58.616Z,14.39
2023-05-04T21:56:15.237Z,14.62
2023-05-04T21:58:42.162Z,14.40
2023-05-04T22:01:22.546Z,14.52
2023-05-04T22:03:58.296Z,14.36
2023-05-04T22:06:57.974Z,14.48
2023-05-04T22:09:44.111Z,14.46
2023-05-04T22:12:14.708Z,14.45
2023-05-04T22:15:14.576Z,14.41
2023-05-04T22:18:02.338Z,14.33
2023-05-04T22:29:16.366Z,14.21
2023-05-04T22:31:55.014Z,14.20
2023-05-04T22:34:30.813Z,14.15
2023-05-04T22:37:02.510Z,14.18
2023-05-04T22:42:27.204Z,14.11
2023-05-04T22:45:27.800Z,14.01
2023-05-04T22:48:27.388Z,13.94
2023-05-04T22:51:10.126Z,13.75
2023-05-04T22:53:51.419Z,14.07
2023-05-04T22:56:44.606Z,13.93
2023-05-04T22:59:15.932Z,13.99
2023-05-04T23:01:54.107Z,13.96
2023-05-04T23:04:26.854Z,13.98
2023-05-04T23:07:07.184Z,13.89
2023-05-04T23:09:50.061Z,13.84
2023-05-04T23:12:27.156Z,13.88
2023-05-04T23:15:00.992Z,13.71
2023-05-04T23:17:37.671Z,13.69
2023-05-04T23:20:20.142Z,13.54
2023-05-04T23:23:08.485Z,13.53
2023-05-04T23:25:48.668Z,13.45
2023-05-04T23:28:23.336Z,13.42
2023-05-04T23:31:28.871Z,13.34
2023-05-04T23:34:32.292Z,13.36
2023-05-04T23:37:18.485Z,13.31
2023-05-04T23:40:32.305Z,13.27
2023-05-04T23:43:30.474Z,13.29
2023-05-04T23:49:35.637Z,13.31
2023-05-04T23:55:51.502Z,13.27
2023-05-04T23:58:48.805Z,13.26
